Helena Regional Airport
KHLN : now visible

Airfield :











YOU CAN JOIN US ON...

 
LOGIN :

Register | Disclaimer

   EN    FR    IT 

 









Legend :    VFR   Marginal VFR   IFR   Intensive IFR   Very Intensive IFR
Visi :
Ceiling :
>= 8 km
>= 3000ft
5 to 8 km
1000 to 3000 ft
1500m to 5 km
500 to 1000 ft
800 to 1500m
200 to 500 ft
< 800m
< 200 ft
Symbols :   Thunderstorms  Fog  Heavy snow  Heavy precipitations  Wind > 20 kt






- Airport Elevation : 3877 ft
- IATA code : HLN


KHLN - Helena Regional

CURRENT METAR :
  • 242353Z 31011KT 10SM CLR 23/03 A3022 RMK AO2 SLP229 T02330028 10239 20206 55001

EXPIRED METARs :
  • 242253Z 31009KT 10SM CLR 24/03 A3022 RMK AO2 SLP221 T02390033
  • 242153Z 31014KT 10SM CLR 24/03 A3022 RMK AO2 SLP224 T02390033

TAF KHLN
Valid from the 25 at 00:00 until the 26 at 00:00 UTC


242320Z 2500/2524 31009KT P6SM SKC
FM250300 VRB06KT P6SM SCT220
FM252100 VRB05KT P6SM FEW110
KZLC FIR / North America



MET'MAP, your aeronautical weather chart ! - Copyright ORBIFLY December 2007 - Disclaimer

ORBIFLY MET'MAP TEAM :

Programming & Development : Alexandra Zaïnal
Original concept : Baudouin d'Aumeries
Technical & hardware support : Manuel Goepfert
Assistance : Marc-Olivier Méhu




SOURCES & CREDITS :

   NOAA       Earth
Advisory